Time;durP1;ratioP1;P1;durP2;ratioP2;P2;SDS_P1;SDS_P2;PMS_P1;PMS_P2;Temp;Humidity;BMP_temperature;BMP_pressure;BME280_temperature;BME280_humidity;BME280_pressure;Samples;Min_cycle;Max_cycle;Signal;HPM_P1;HPM_P2
2021/01/11 00:01:21;;;;;;;33.27;22.20;;;-3.60;99.90;;;;;;5048459;28;20533;-67
2021/01/11 00:03:48;;;;;;;37.77;20.87;;;-3.70;99.90;;;;;;5049283;28;20448;-67
2021/01/11 00:06:14;;;;;;;30.53;21.30;;;-3.70;99.90;;;;;;5048529;28;20458;-67
2021/01/11 00:08:41;;;;;;;29.63;21.07;;;-3.90;99.90;;;;;;5049144;28;20447;-67
2021/01/11 00:11:07;;;;;;;36.00;22.30;;;-3.90;99.90;;;;;;5047868;28;20467;-67
2021/01/11 00:13:34;;;;;;;31.37;20.97;;;-4.00;99.90;;;;;;5048719;28;20527;-67
2021/01/11 00:16:01;;;;;;;35.30;19.87;;;-4.00;99.90;;;;;;5048822;28;20483;-67
2021/01/11 00:18:27;;;;;;;34.23;19.80;;;-3.90;99.90;;;;;;5048392;28;20937;-67
2021/01/11 00:20:53;;;;;;;36.57;21.23;;;-3.80;99.90;;;;;;5048250;28;20841;-67
2021/01/11 00:23:20;;;;;;;28.70;20.67;;;-3.80;99.90;;;;;;5048499;28;20542;-67
2021/01/11 00:25:47;;;;;;;29.93;19.97;;;-3.80;99.90;;;;;;5041289;28;20860;-67
2021/01/11 00:28:14;;;;;;;29.20;19.13;;;-3.90;99.90;;;;;;5049387;28;20448;-67
2021/01/11 00:30:41;;;;;;;35.90;20.77;;;-4.10;99.90;;;;;;5048550;28;20627;-67
2021/01/11 00:33:07;;;;;;;31.77;19.43;;;-4.10;99.90;;;;;;5049407;28;20523;-67
2021/01/11 00:35:33;;;;;;;28.93;19.57;;;-4.20;99.90;;;;;;5049986;28;20530;-67
2021/01/11 00:38:00;;;;;;;27.17;18.90;;;-4.20;99.90;;;;;;5050043;28;20824;-67
2021/01/11 00:40:26;;;;;;;33.97;20.67;;;-4.20;99.90;;;;;;5049037;28;20703;-67
2021/01/11 00:42:52;;;;;;;34.50;21.07;;;-4.30;99.90;;;;;;5050181;28;20475;-67
2021/01/11 00:45:19;;;;;;;29.20;20.43;;;-4.30;99.90;;;;;;5049890;28;20454;-67
2021/01/11 00:47:46;;;;;;;28.40;19.30;;;-4.30;99.90;;;;;;5049760;28;20436;-67
2021/01/11 00:50:13;;;;;;;30.27;19.07;;;-4.40;99.90;;;;;;5049076;28;20525;-67
2021/01/11 00:52:39;;;;;;;27.30;18.93;;;-4.50;99.90;;;;;;5049746;28;20447;-67
2021/01/11 00:55:07;;;;;;;25.93;19.20;;;-4.40;99.90;;;;;;5049862;28;20456;-67
2021/01/11 00:57:34;;;;;;;30.93;19.87;;;-4.40;99.90;;;;;;5049828;28;20500;-67
2021/01/11 01:00:00;;;;;;;31.10;18.40;;;-4.50;99.90;;;;;;5049095;28;20488;-67
2021/01/11 01:02:27;;;;;;;29.50;19.03;;;-4.50;99.90;;;;;;5049647;28;20992;-67
2021/01/11 01:04:54;;;;;;;32.73;18.60;;;-4.60;99.90;;;;;;5047853;28;20444;-67
2021/01/11 01:07:20;;;;;;;31.20;21.20;;;-4.60;99.90;;;;;;5049646;28;21024;-67
2021/01/11 01:09:47;;;;;;;31.20;21.30;;;-4.50;99.90;;;;;;5048413;28;20551;-67
2021/01/11 01:12:13;;;;;;;29.53;20.90;;;-4.50;99.90;;;;;;5049611;28;20448;-67
2021/01/11 01:14:39;;;;;;;32.10;20.77;;;-4.50;99.90;;;;;;5049452;28;20456;-67
2021/01/11 01:17:06;;;;;;;30.80;20.00;;;-4.50;99.90;;;;;;5049440;28;20452;-67
2021/01/11 01:19:32;;;;;;;37.27;21.50;;;-4.40;99.90;;;;;;5048488;28;20518;-67
2021/01/11 01:21:59;;;;;;;35.27;21.40;;;-4.50;99.90;;;;;;5048885;28;20462;-67
2021/01/11 01:24:25;;;;;;;27.70;17.47;;;-4.60;99.90;;;;;;5049119;28;20585;-67
2021/01/11 01:26:52;;;;;;;36.20;20.47;;;-4.60;99.90;;;;;;5049480;28;20466;-66
2021/01/11 01:29:18;;;;;;;34.10;20.70;;;-4.50;99.90;;;;;;5048362;28;20530;-67
2021/01/11 01:31:44;;;;;;;33.17;19.40;;;-4.50;99.90;;;;;;5048990;28;20448;-67
2021/01/11 01:34:11;;;;;;;33.77;21.03;;;-4.60;99.90;;;;;;5049136;28;20563;-67
2021/01/11 01:36:37;;;;;;;32.13;19.97;;;-4.60;99.90;;;;;;5049077;28;20533;-67
2021/01/11 01:39:04;;;;;;;36.80;21.77;;;-4.60;99.90;;;;;;5048474;28;20487;-67
2021/01/11 01:41:31;;;;;;;35.33;19.77;;;-4.60;99.90;;;;;;5048793;28;20554;-67
2021/01/11 01:43:57;;;;;;;29.10;18.80;;;-4.60;99.90;;;;;;5049177;28;20804;-67
2021/01/11 01:46:28;;;;;;;29.03;18.67;;;-4.60;99.90;;;;;;5048815;28;20460;-67
2021/01/11 01:48:54;;;;;;;27.83;21.17;;;-4.60;99.90;;;;;;5048839;28;20500;-67
2021/01/11 01:51:21;;;;;;;29.43;22.20;;;-4.60;99.90;;;;;;5048259;28;20476;-67
2021/01/11 01:53:47;;;;;;;33.70;22.10;;;-4.70;99.90;;;;;;5048687;28;20601;-67
2021/01/11 01:56:16;;;;;;;27.03;19.73;;;-4.60;99.90;;;;;;5048978;28;20535;-67
2021/01/11 01:58:44;;;;;;;28.17;18.80;;;-4.70;99.90;;;;;;5048930;28;20514;-67
2021/01/11 02:01:10;;;;;;;34.23;21.20;;;-4.70;99.90;;;;;;5047954;28;20471;-66
2021/01/11 02:03:38;;;;;;;33.30;19.73;;;-4.70;99.90;;;;;;5048673;28;20827;-67
2021/01/11 02:06:04;;;;;;;35.43;21.40;;;-4.80;99.90;;;;;;5048636;28;20444;-67
2021/01/11 02:08:39;;;;;;;34.13;20.13;;;-4.80;99.90;;;;;;5048663;28;20539;-67
2021/01/11 02:11:14;;;;;;;28.20;19.97;;;-4.80;99.90;;;;;;5048100;28;20557;-67
2021/01/11 02:14:10;;;;;;;29.67;19.83;;;-4.80;99.90;;;;;;5048396;28;20943;-67
2021/01/11 02:16:47;;;;;;;33.77;20.70;;;-4.80;99.90;;;;;;5048401;28;20454;-66
2021/01/11 02:19:39;;;;;;;29.00;20.03;;;-4.90;99.90;;;;;;5048564;28;20487;-66
2021/01/11 02:22:09;;;;;;;32.60;18.30;;;-4.80;99.90;;;;;;5049641;28;20456;-66
2021/01/11 02:25:11;;;;;;;35.00;19.00;;;-4.90;99.90;;;;;;5048677;28;20475;-66
2021/01/11 02:27:42;;;;;;;31.97;20.47;;;-4.80;99.90;;;;;;5025510;28;21288;-66
2021/01/11 02:30:26;;;;;;;27.17;18.33;;;-4.80;99.90;;;;;;5047783;28;20516;-68
2021/01/11 02:33:05;;;;;;;24.90;19.50;;;-4.90;99.90;;;;;;5046732;28;20586;-66
2021/01/11 02:35:33;;;;;;;27.17;17.83;;;-4.90;99.90;;;;;;5048559;28;20432;-67
2021/01/11 02:38:00;;;;;;;24.33;16.63;;;-5.00;99.90;;;;;;5048411;28;20452;-66
2021/01/11 02:40:26;;;;;;;33.80;19.33;;;-5.00;99.90;;;;;;5047732;28;20483;-66
2021/01/11 02:42:53;;;;;;;28.63;17.80;;;-5.10;99.90;;;;;;5048376;28;20886;-66
2021/01/11 02:45:19;;;;;;;31.23;19.00;;;-5.20;99.90;;;;;;5048278;28;20451;-66
2021/01/11 02:47:58;;;;;;;30.80;18.53;;;-5.20;99.90;;;;;;5048012;28;20478;-67
2021/01/11 02:50:26;;;;;;;29.77;18.50;;;-5.10;99.90;;;;;;5047356;28;20550;-66
2021/01/11 02:53:07;;;;;;;27.07;17.03;;;-5.00;99.90;;;;;;5047993;28;20480;-66
2021/01/11 02:55:42;;;;;;;27.13;18.47;;;-5.20;99.90;;;;;;5048127;28;21009;-66
2021/01/11 02:58:14;;;;;;;33.07;20.00;;;-5.20;99.90;;;;;;5050941;28;20469;-66
2021/01/11 03:00:43;;;;;;;26.40;18.27;;;-5.20;99.90;;;;;;5051165;28;20494;-67
2021/01/11 03:03:12;;;;;;;31.50;19.80;;;-5.20;99.90;;;;;;5052000;28;20466;-67
2021/01/11 03:05:41;;;;;;;31.00;20.43;;;-5.30;99.90;;;;;;5051761;28;21010;-67
2021/01/11 03:08:07;;;;;;;30.13;18.87;;;-5.30;99.90;;;;;;5051635;28;20932;-67
2021/01/11 03:10:34;;;;;;;32.20;17.90;;;-5.30;99.90;;;;;;5050973;28;20551;-67
2021/01/11 03:13:00;;;;;;;34.67;20.13;;;-5.30;99.90;;;;;;5051596;28;20459;-67
2021/01/11 03:15:26;;;;;;;31.90;19.90;;;-5.20;99.90;;;;;;5051767;28;20458;-67
2021/01/11 03:17:53;;;;;;;29.80;19.27;;;-5.30;99.90;;;;;;5051710;28;20440;-67
2021/01/11 03:20:20;;;;;;;29.30;20.20;;;-5.30;99.90;;;;;;5050678;28;20580;-67
2021/01/11 03:22:46;;;;;;;26.30;18.23;;;-5.30;99.90;;;;;;5051273;28;20502;-67
2021/01/11 03:25:13;;;;;;;33.27;21.30;;;-5.30;99.90;;;;;;5051163;28;20535;-67
2021/01/11 03:27:39;;;;;;;32.50;20.20;;;-5.30;99.90;;;;;;5051267;28;20537;-67
2021/01/11 03:30:07;;;;;;;34.47;19.03;;;-5.40;99.90;;;;;;5050616;28;20456;-67
2021/01/11 03:32:34;;;;;;;32.97;20.17;;;-5.40;99.90;;;;;;5051249;28;20527;-67
2021/01/11 03:35:00;;;;;;;29.70;18.53;;;-5.30;99.90;;;;;;5051266;28;20439;-67
2021/01/11 03:37:27;;;;;;;30.00;18.43;;;-5.30;99.90;;;;;;5051161;28;20653;-67
2021/01/11 03:39:54;;;;;;;33.70;20.40;;;-5.40;99.90;;;;;;5050243;28;20575;-68
2021/01/11 03:42:20;;;;;;;28.47;18.73;;;-5.50;99.90;;;;;;5051045;28;20487;-68
2021/01/11 03:44:46;;;;;;;30.03;19.10;;;-5.50;99.90;;;;;;5051022;28;20967;-67
2021/01/11 03:47:13;;;;;;;30.43;18.30;;;-5.50;99.90;;;;;;5051176;28;20479;-67
2021/01/11 03:49:39;;;;;;;31.50;19.20;;;-5.50;99.90;;;;;;5050189;28;20538;-68
2021/01/11 03:52:06;;;;;;;27.67;18.30;;;-5.50;99.90;;;;;;5050786;28;20451;-67
2021/01/11 03:54:33;;;;;;;30.23;18.67;;;-5.50;99.90;;;;;;5050154;28;20528;-68
2021/01/11 03:56:59;;;;;;;25.50;18.27;;;-5.60;99.90;;;;;;5050212;28;20594;-68
2021/01/11 03:59:26;;;;;;;31.80;20.60;;;-5.70;99.90;;;;;;5050984;28;20591;-68
2021/01/11 04:01:53;;;;;;;31.03;19.77;;;-5.80;99.90;;;;;;5050754;28;20479;-67
2021/01/11 04:04:19;;;;;;;35.63;19.23;;;-5.80;99.90;;;;;;5050493;28;20448;-68
2021/01/11 04:06:46;;;;;;;27.87;18.50;;;-5.80;99.90;;;;;;5050565;28;20535;-68
2021/01/11 04:09:12;;;;;;;31.10;19.37;;;-5.70;99.90;;;;;;5049782;28;20440;-68
2021/01/11 04:11:39;;;;;;;29.40;18.40;;;-5.80;99.90;;;;;;5050464;28;20541;-67
2021/01/11 04:14:06;;;;;;;28.50;17.57;;;-5.70;99.90;;;;;;5050500;28;20456;-68
2021/01/11 04:16:33;;;;;;;29.13;19.87;;;-5.80;99.90;;;;;;5050648;28;20455;-68
2021/01/11 04:18:59;;;;;;;25.83;16.33;;;-5.80;99.90;;;;;;5050111;28;20482;-67
2021/01/11 04:21:26;;;;;;;28.77;19.00;;;-5.80;99.90;;;;;;5049771;28;20551;-67
2021/01/11 04:23:52;;;;;;;33.63;20.73;;;-5.80;99.90;;;;;;5050612;28;20866;-67
2021/01/11 04:26:18;;;;;;;29.73;16.93;;;-5.80;99.90;;;;;;5050406;28;20465;-67
2021/01/11 04:28:46;;;;;;;33.37;18.27;;;-5.80;99.90;;;;;;5050290;28;20464;-67
2021/01/11 04:31:12;;;;;;;29.77;20.43;;;-5.70;99.90;;;;;;5049370;28;20467;-67
2021/01/11 04:33:39;;;;;;;28.07;18.43;;;-5.70;99.90;;;;;;5050104;28;20887;-67
2021/01/11 04:36:06;;;;;;;34.53;20.97;;;-5.80;99.90;;;;;;5049892;28;20436;-67
2021/01/11 04:38:32;;;;;;;27.53;18.63;;;-5.80;99.90;;;;;;5050153;28;20439;-67
2021/01/11 04:41:03;;;;;;;31.47;19.10;;;-5.80;99.90;;;;;;5049404;28;20540;-68
2021/01/11 04:43:35;;;;;;;30.80;18.00;;;-5.90;99.90;;;;;;5049882;28;20451;-67
2021/01/11 04:46:02;;;;;;;31.50;18.40;;;-5.90;99.90;;;;;;5049938;28;20458;-67
2021/01/11 04:48:31;;;;;;;32.03;17.90;;;-5.90;99.90;;;;;;5049735;28;20456;-67
2021/01/11 04:50:57;;;;;;;29.00;18.77;;;-5.90;99.90;;;;;;5048918;28;20465;-67
2021/01/11 04:53:26;;;;;;;31.97;19.83;;;-6.00;99.90;;;;;;5049596;28;20444;-67
2021/01/11 04:55:54;;;;;;;31.07;18.50;;;-6.00;99.90;;;;;;5049912;28;20470;-67
2021/01/11 04:58:22;;;;;;;24.20;17.40;;;-6.00;99.90;;;;;;5049689;28;20455;-67
2021/01/11 05:00:49;;;;;;;27.17;17.50;;;-5.90;99.90;;;;;;5048735;28;20494;-67
2021/01/11 05:03:16;;;;;;;27.43;16.77;;;-5.90;99.90;;;;;;5049365;28;20448;-67
2021/01/11 05:05:44;;;;;;;27.33;16.20;;;-5.90;99.90;;;;;;5049486;28;20531;-67
2021/01/11 05:08:10;;;;;;;28.53;18.43;;;-5.90;99.90;;;;;;5049642;28;20882;-67
2021/01/11 05:10:39;;;;;;;29.30;19.80;;;-6.00;99.90;;;;;;5048595;28;20558;-67
2021/01/11 05:13:06;;;;;;;30.17;18.67;;;-6.00;99.90;;;;;;5049288;28;20455;-67
2021/01/11 05:15:34;;;;;;;28.23;18.03;;;-5.90;99.90;;;;;;5049244;28;20448;-67
2021/01/11 05:18:01;;;;;;;25.80;16.97;;;-5.70;99.90;;;;;;5049431;28;20447;-67
2021/01/11 05:20:30;;;;;;;27.30;17.10;;;-5.60;99.90;;;;;;5047966;28;20488;-67
2021/01/11 05:22:57;;;;;;;33.17;18.77;;;-5.80;99.90;;;;;;5049563;28;20550;-67
2021/01/11 05:25:25;;;;;;;31.60;18.90;;;-5.90;99.90;;;;;;5049310;28;20456;-67
2021/01/11 05:28:07;;;;;;;31.67;17.37;;;-6.00;99.90;;;;;;5049431;28;20532;-67
2021/01/11 05:30:35;;;;;;;27.80;17.37;;;-6.10;99.90;;;;;;5048604;28;21026;-67
2021/01/11 05:33:02;;;;;;;25.93;17.13;;;-6.00;99.90;;;;;;5049327;28;20589;-67
2021/01/11 05:35:29;;;;;;;32.63;19.33;;;-5.90;99.90;;;;;;5049135;28;20482;-67
2021/01/11 05:37:56;;;;;;;32.77;18.10;;;-5.90;99.90;;;;;;5048837;28;20454;-67
2021/01/11 05:40:24;;;;;;;26.97;18.43;;;-5.90;99.90;;;;;;5048021;28;20838;-67
2021/01/11 05:42:52;;;;;;;33.80;18.40;;;-5.90;99.90;;;;;;5048817;28;20440;-67
2021/01/11 05:45:21;;;;;;;31.07;17.73;;;-5.90;99.90;;;;;;5049127;28;20539;-67
2021/01/11 05:47:59;;;;;;;25.23;16.93;;;-6.00;99.90;;;;;;5048567;28;20447;-67
2021/01/11 05:50:28;;;;;;;28.63;17.70;;;-6.10;99.90;;;;;;5048189;28;20460;-67
2021/01/11 05:52:56;;;;;;;29.07;17.73;;;-6.10;99.90;;;;;;5048616;28;20440;-67
2021/01/11 05:55:23;;;;;;;29.53;19.13;;;-6.00;99.90;;;;;;5048542;28;20448;-67
2021/01/11 05:57:58;;;;;;;31.40;18.57;;;-6.00;99.90;;;;;;5048787;28;20451;-67
2021/01/11 06:00:26;;;;;;;26.77;17.77;;;-6.00;99.90;;;;;;5048017;28;20566;-67
2021/01/11 06:02:54;;;;;;;25.63;17.30;;;-6.00;99.90;;;;;;5048738;28;20509;-67
2021/01/11 06:05:21;;;;;;;27.63;17.30;;;-6.00;99.90;;;;;;5048510;28;20463;-67
2021/01/11 06:07:48;;;;;;;28.53;19.47;;;-6.00;99.90;;;;;;5048424;28;20498;-67
2021/01/11 06:10:17;;;;;;;25.67;17.50;;;-6.00;99.90;;;;;;5044030;28;20470;-67
2021/01/11 06:12:45;;;;;;;28.60;18.27;;;-6.00;99.90;;;;;;5047850;28;20505;-67
2021/01/11 06:15:13;;;;;;;30.47;20.00;;;-6.10;99.90;;;;;;5047364;28;20494;-67
2021/01/11 06:17:40;;;;;;;30.73;18.13;;;-6.10;99.90;;;;;;5048584;28;20444;-67
2021/01/11 06:20:08;;;;;;;30.23;19.10;;;-6.10;99.90;;;;;;5044366;28;20529;-67
2021/01/11 06:23:14;;;;;;;25.63;18.10;;;-6.20;99.90;;;;;;5046836;28;20467;-67
2021/01/11 06:25:46;;;;;;;28.67;17.27;;;-6.20;99.90;;;;;;5029926;28;20452;-67
2021/01/11 06:28:13;;;;;;;28.33;18.10;;;-6.20;99.90;;;;;;5041872;28;20542;-68
2021/01/11 06:30:45;;;;;;;29.20;18.33;;;-6.20;99.90;;;;;;5046525;28;21065;-67
2021/01/11 06:33:16;;;;;;;27.43;17.87;;;-6.10;99.90;;;;;;5049745;28;20530;-69
2021/01/11 06:35:44;;;;;;;29.20;17.80;;;-6.10;99.90;;;;;;5051698;28;20444;-68
2021/01/11 06:38:18;;;;;;;28.27;18.43;;;-6.10;99.90;;;;;;5052487;28;20470;-69
2021/01/11 06:40:49;;;;;;;28.13;18.33;;;-6.10;99.90;;;;;;5052115;28;20487;-69
2021/01/11 06:43:17;;;;;;;25.97;17.73;;;-6.00;99.90;;;;;;5052036;28;20454;-71
2021/01/11 06:45:44;;;;;;;26.23;16.40;;;-6.00;99.90;;;;;;5046626;28;20546;-69
2021/01/11 06:48:14;;;;;;;34.50;20.00;;;-5.80;99.90;;;;;;5049563;28;20447;-69
2021/01/11 06:50:42;;;;;;;29.10;17.70;;;-5.80;99.90;;;;;;5049355;28;20472;-69
2021/01/11 06:53:09;;;;;;;26.13;16.27;;;-5.80;99.90;;;;;;5048737;28;20524;-69
2021/01/11 06:55:35;;;;;;;28.37;16.90;;;-5.80;99.90;;;;;;5043689;28;20648;-69
2021/01/11 06:58:03;;;;;;;26.30;17.10;;;-5.80;99.90;;;;;;5045608;28;20951;-69
2021/01/11 07:00:32;;;;;;;28.23;16.20;;;-5.80;99.90;;;;;;5048162;28;20833;-68
2021/01/11 07:02:59;;;;;;;36.30;17.10;;;-5.80;99.90;;;;;;5046776;28;20460;-69
2021/01/11 07:05:45;;;;;;;29.80;17.97;;;-5.80;99.90;;;;;;5049104;28;20847;-69
2021/01/11 07:08:15;;;;;;;21.87;14.33;;;-5.80;99.90;;;;;;5047260;28;20463;-69
2021/01/11 07:10:42;;;;;;;26.60;18.43;;;-5.80;99.90;;;;;;5048428;28;20488;-69
2021/01/11 07:13:26;;;;;;;28.57;16.80;;;-5.70;99.90;;;;;;5049154;28;20538;-69
2021/01/11 07:16:13;;;;;;;26.03;18.43;;;-5.70;99.90;;;;;;5048498;28;20476;-71
2021/01/11 07:18:53;;;;;;;30.77;17.50;;;-5.70;99.90;;;;;;5045364;28;20444;-72
2021/01/11 07:21:25;;;;;;;25.70;16.30;;;-5.70;99.90;;;;;;5048770;28;21249;-70
2021/01/11 07:23:53;;;;;;;25.27;18.27;;;-5.70;99.90;;;;;;5048662;28;20893;-71
2021/01/11 07:26:21;;;;;;;32.50;16.07;;;-5.70;99.90;;;;;;5047715;28;21030;-70
2021/01/11 07:28:57;;;;;;;27.90;16.83;;;-5.70;99.90;;;;;;5049153;28;20531;-71
2021/01/11 07:31:26;;;;;;;29.93;17.47;;;-5.60;99.90;;;;;;5048847;28;20500;-72
2021/01/11 07:34:01;;;;;;;28.50;18.77;;;-5.60;99.90;;;;;;5049010;28;20531;-71
2021/01/11 07:36:28;;;;;;;27.03;18.83;;;-5.60;99.90;;;;;;5048342;28;20470;-72
2021/01/11 07:39:13;;;;;;;32.20;18.30;;;-5.50;99.90;;;;;;5044498;28;20536;-68
2021/01/11 07:41:41;;;;;;;31.60;17.27;;;-5.50;99.90;;;;;;5046243;28;20621;-68
2021/01/11 07:44:13;;;;;;;30.80;16.87;;;-5.30;99.90;;;;;;5046801;28;20451;-71
2021/01/11 07:46:39;;;;;;;28.33;17.60;;;-5.20;99.90;;;;;;5043989;28;21697;-68
2021/01/11 07:49:16;;;;;;;31.33;17.17;;;-5.20;99.90;;;;;;5041033;28;20451;-68
2021/01/11 07:51:45;;;;;;;31.97;17.80;;;-5.10;99.90;;;;;;5039854;28;20551;-68
2021/01/11 07:54:14;;;;;;;33.73;20.80;;;-5.00;99.90;;;;;;5046381;28;20480;-70
2021/01/11 07:56:42;;;;;;;31.47;20.17;;;-5.00;99.90;;;;;;5046229;28;20523;-70
2021/01/11 07:59:09;;;;;;;28.50;19.20;;;-4.90;99.90;;;;;;5045809;28;20475;-69
2021/01/11 08:01:38;;;;;;;25.83;17.10;;;-4.90;99.90;;;;;;5046324;28;20950;-70
2021/01/11 08:04:05;;;;;;;30.90;21.10;;;-4.90;99.90;;;;;;5046449;28;20527;-70
2021/01/11 08:06:44;;;;;;;33.73;19.13;;;-4.80;99.90;;;;;;5046058;28;20455;-70
2021/01/11 08:09:12;;;;;;;32.77;18.97;;;-4.80;99.90;;;;;;5045781;28;20440;-70
2021/01/11 08:11:39;;;;;;;36.83;20.33;;;-4.80;99.90;;;;;;5046310;28;20479;-70
2021/01/11 08:14:06;;;;;;;36.07;20.03;;;-4.70;99.90;;;;;;5046866;28;20905;-70
2021/01/11 08:16:33;;;;;;;32.53;20.87;;;-4.60;99.90;;;;;;5043810;28;20892;-71
2021/01/11 08:19:05;;;;;;;35.73;21.57;;;-4.50;99.90;;;;;;5026062;28;20962;-70
2021/01/11 08:21:31;;;;;;;35.30;19.83;;;-4.50;99.90;;;;;;5045045;28;20627;-70
2021/01/11 08:24:02;;;;;;;33.27;19.90;;;-4.40;99.90;;;;;;5045772;28;20491;-70
2021/01/11 08:26:30;;;;;;;40.77;22.40;;;-4.30;99.90;;;;;;5045875;28;20480;-70
2021/01/11 08:28:58;;;;;;;36.27;20.90;;;-4.20;99.90;;;;;;5044822;28;20459;-71
2021/01/11 08:31:25;;;;;;;36.10;20.20;;;-4.10;99.90;;;;;;5045367;28;20460;-70
2021/01/11 08:33:53;;;;;;;35.37;22.07;;;-4.00;99.90;;;;;;5046688;28;20510;-70
2021/01/11 08:36:23;;;;;;;36.00;18.70;;;-3.80;99.90;;;;;;5045709;28;20550;-71
2021/01/11 08:39:13;;;;;;;35.27;21.13;;;-3.70;99.90;;;;;;5044403;28;20509;-71
2021/01/11 08:41:46;;;;;;;29.30;20.03;;;-3.60;99.90;;;;;;5046297;28;21018;-70
2021/01/11 08:44:27;;;;;;;28.50;18.93;;;-3.50;99.90;;;;;;5046143;28;20450;-70
2021/01/11 08:47:00;;;;;;;30.53;18.53;;;-3.30;99.90;;;;;;5045568;28;20531;-70
2021/01/11 08:49:27;;;;;;;28.73;19.23;;;-3.20;99.90;;;;;;5045074;28;20453;-70
2021/01/11 08:52:10;;;;;;;35.33;20.27;;;-3.20;99.90;;;;;;5045981;28;20534;-70
2021/01/11 08:54:37;;;;;;;27.47;17.87;;;-3.10;99.90;;;;;;5044339;28;20463;-69
2021/01/11 08:57:12;;;;;;;28.93;19.90;;;-3.00;99.90;;;;;;5044019;28;20527;-71
2021/01/11 08:59:48;;;;;;;28.70;19.27;;;-2.80;99.90;;;;;;5044542;28;20562;-69
2021/01/11 09:02:28;;;;;;;28.93;20.17;;;-2.70;99.90;;;;;;5045408;28;20455;-71
2021/01/11 09:04:55;;;;;;;34.67;20.77;;;-2.60;99.90;;;;;;5044013;28;20499;-68
2021/01/11 09:07:31;;;;;;;29.00;19.10;;;-2.60;99.90;;;;;;5044442;28;20609;-69
2021/01/11 09:09:59;;;;;;;29.10;17.77;;;-2.50;99.90;;;;;;5044225;28;20484;-69
2021/01/11 09:12:30;;;;;;;35.93;20.60;;;-2.40;99.90;;;;;;5045219;28;20451;-68
2021/01/11 09:14:57;;;;;;;30.37;18.80;;;-2.30;99.90;;;;;;5044973;28;20527;-68
2021/01/11 09:17:31;;;;;;;29.23;18.90;;;-2.20;99.90;;;;;;5044088;28;20531;-68
2021/01/11 09:20:00;;;;;;;33.47;19.47;;;-2.00;99.90;;;;;;5024526;28;20592;-69
2021/01/11 09:22:33;;;;;;;25.50;17.03;;;-1.90;99.90;;;;;;5024992;28;20468;-72
2021/01/11 09:25:01;;;;;;;25.50;18.00;;;-1.70;99.90;;;;;;5025563;28;20459;-71
2021/01/11 09:27:27;;;;;;;26.63;16.97;;;-1.50;99.90;;;;;;5025866;28;20460;-70
2021/01/11 09:29:54;;;;;;;26.00;17.80;;;-1.50;99.90;;;;;;5036292;28;20464;-70
2021/01/11 09:32:20;;;;;;;26.53;19.43;;;-1.50;99.90;;;;;;5048351;28;20444;-71
2021/01/11 09:34:47;;;;;;;31.60;18.10;;;-1.40;99.90;;;;;;5051074;28;20555;-71
2021/01/11 09:37:14;;;;;;;27.40;17.03;;;-1.20;99.90;;;;;;5048753;28;20472;-72
2021/01/11 09:39:41;;;;;;;25.80;16.23;;;-1.20;99.90;;;;;;5045961;28;20567;-71
2021/01/11 09:42:08;;;;;;;24.10;16.40;;;-1.20;99.90;;;;;;5046962;28;20571;-72
2021/01/11 09:44:34;;;;;;;29.37;17.60;;;-1.20;99.90;;;;;;5047287;28;20498;-70
2021/01/11 09:47:03;;;;;;;29.40;18.20;;;-1.30;99.90;;;;;;5046983;28;20894;-71
2021/01/11 09:49:29;;;;;;;24.77;16.70;;;-1.30;99.90;;;;;;5044781;28;20527;-69
2021/01/11 09:51:56;;;;;;;26.47;18.80;;;-1.30;99.90;;;;;;5044985;28;20497;-70
2021/01/11 09:54:22;;;;;;;27.35;20.30;;;-1.30;99.90;;;;;;5045121;28;20479;-70
2021/01/11 09:56:49;;;;;;;27.80;18.57;;;-1.30;99.90;;;;;;5045134;28;20241;-71
2021/01/11 09:59:16;;;;;;;29.27;19.33;;;-1.40;99.90;;;;;;5044145;28;20649;-71
2021/01/11 10:01:44;;;;;;;27.00;17.77;;;-1.30;99.90;;;;;;5035687;28;20878;-70
2021/01/11 10:04:12;;;;;;;26.70;20.00;;;-1.30;99.90;;;;;;5036218;28;20527;-71
2021/01/11 10:06:42;;;;;;;29.07;16.43;;;-1.30;99.90;;;;;;5033314;28;20531;-71
2021/01/11 10:09:10;;;;;;;25.27;17.17;;;-1.20;99.90;;;;;;5033652;28;20444;-71
2021/01/11 10:11:36;;;;;;;25.80;17.23;;;-1.30;99.90;;;;;;5027402;28;20880;-71
2021/01/11 10:14:04;;;;;;;24.60;17.33;;;-1.20;99.90;;;;;;5025328;28;20444;-71
2021/01/11 10:16:30;;;;;;;26.67;17.63;;;-1.20;99.90;;;;;;5027925;28;20538;-72
2021/01/11 10:18:57;;;;;;;25.73;16.13;;;-1.10;99.90;;;;;;5044077;28;20529;-70
2021/01/11 10:21:24;;;;;;;27.20;16.57;;;-1.10;99.90;;;;;;5043885;28;20480;-70
2021/01/11 10:23:51;;;;;;;23.47;17.43;;;-1.10;99.90;;;;;;5045165;28;20479;-71
2021/01/11 10:26:21;;;;;;;24.40;15.77;;;-0.90;99.90;;;;;;5044707;28;20448;-73
2021/01/11 10:28:48;;;;;;;25.47;17.40;;;-0.50;99.90;;;;;;5044628;28;20980;-71
2021/01/11 10:31:16;;;;;;;26.60;16.80;;;-0.10;99.90;;;;;;5044377;28;20551;-71
2021/01/11 10:33:45;;;;;;;23.10;15.27;;;0.50;99.90;;;;;;5045669;28;20445;-71
2021/01/11 10:36:13;;;;;;;24.97;16.63;;;1.10;99.90;;;;;;5044367;28;21031;-70
2021/01/11 10:38:40;;;;;;;24.93;16.57;;;1.70;99.90;;;;;;5044905;28;20448;-71
2021/01/11 10:41:06;;;;;;;22.90;16.40;;;2.20;99.90;;;;;;5044479;28;20572;-69
2021/01/11 10:43:33;;;;;;;25.77;14.60;;;2.80;99.90;;;;;;5044619;28;20478;-71
2021/01/11 10:45:59;;;;;;;25.30;16.07;;;3.10;99.90;;;;;;5045355;28;20444;-69
2021/01/11 10:48:27;;;;;;;26.40;17.33;;;3.40;99.90;;;;;;5045168;28;20444;-69
2021/01/11 10:50:53;;;;;;;22.13;16.13;;;3.60;99.90;;;;;;5044316;28;20466;-70
2021/01/11 10:53:20;;;;;;;20.80;15.80;;;4.00;99.90;;;;;;5045248;28;20455;-69
2021/01/11 10:55:46;;;;;;;17.10;15.00;;;4.10;99.90;;;;;;5044971;28;20544;-68
2021/01/11 10:58:13;;;;;;;21.10;15.47;;;4.20;99.90;;;;;;5045078;28;20460;-68
2021/01/11 11:00:39;;;;;;;21.60;16.47;;;4.30;99.90;;;;;;5044345;28;20573;-69
2021/01/11 11:03:06;;;;;;;21.10;15.80;;;3.90;99.90;;;;;;5046413;28;20539;-72
2021/01/11 11:05:34;;;;;;;20.67;14.90;;;3.40;99.90;;;;;;5044875;28;20452;-72
2021/01/11 11:08:00;;;;;;;22.00;15.83;;;2.80;99.90;;;;;;5036925;28;20534;-69
2021/01/11 11:10:26;;;;;;;22.30;15.70;;;2.20;99.90;;;;;;5045034;28;20499;-71
2021/01/11 11:12:53;;;;;;;21.90;16.10;;;1.90;99.90;;;;;;5044671;28;20483;-69
2021/01/11 11:15:19;;;;;;;22.97;16.87;;;1.60;99.90;;;;;;5044640;28;20444;-71
2021/01/11 11:17:46;;;;;;;25.70;16.37;;;1.30;99.90;;;;;;5045049;28;20636;-69
2021/01/11 11:20:13;;;;;;;25.07;15.73;;;1.10;99.90;;;;;;5028335;28;20563;-70
2021/01/11 11:22:41;;;;;;;21.73;15.80;;;1.00;99.90;;;;;;5028820;28;20463;-71
2021/01/11 11:25:09;;;;;;;25.40;16.13;;;1.00;99.90;;;;;;5029118;28;20615;-70
2021/01/11 11:27:36;;;;;;;23.10;17.33;;;0.90;99.90;;;;;;5028093;28;20481;-70
2021/01/11 11:30:05;;;;;;;28.80;17.30;;;0.80;99.90;;;;;;5027158;28;20495;-71
2021/01/11 11:32:34;;;;;;;30.73;18.87;;;0.70;99.90;;;;;;5028355;28;20532;-70
2021/01/11 11:35:04;;;;;;;23.03;15.53;;;0.80;99.90;;;;;;5028758;28;21130;-71
2021/01/11 11:37:31;;;;;;;27.10;17.23;;;0.90;99.90;;;;;;5046129;28;20440;-70
2021/01/11 11:39:58;;;;;;;21.00;15.70;;;0.80;99.90;;;;;;5046938;28;20889;-67
2021/01/11 11:42:24;;;;;;;27.70;17.30;;;0.80;99.90;;;;;;5049564;28;20531;-67
2021/01/11 11:44:50;;;;;;;23.90;15.60;;;1.00;99.90;;;;;;5049924;28;20454;-69
2021/01/11 11:47:17;;;;;;;26.10;17.40;;;1.00;99.90;;;;;;5048969;28;20452;-74
2021/01/11 11:49:43;;;;;;;25.90;16.80;;;1.00;99.90;;;;;;5048661;28;20472;-70
2021/01/11 11:52:10;;;;;;;24.87;16.87;;;0.90;99.90;;;;;;5049436;28;20535;-70
2021/01/11 11:54:36;;;;;;;23.40;15.97;;;0.80;99.90;;;;;;5049354;28;20987;-70
2021/01/11 11:57:04;;;;;;;21.93;16.23;;;0.80;99.90;;;;;;5049239;28;20516;-70
2021/01/11 11:59:30;;;;;;;22.30;15.37;;;0.80;99.90;;;;;;5048694;28;20529;-70
2021/01/11 12:01:57;;;;;;;30.90;16.90;;;0.80;99.90;;;;;;5049003;28;21034;-71
2021/01/11 12:04:23;;;;;;;25.83;17.20;;;0.70;99.90;;;;;;5049642;28;20893;-72
2021/01/11 12:06:49;;;;;;;28.40;17.07;;;0.80;99.90;;;;;;5048671;28;20906;-71
2021/01/11 12:09:16;;;;;;;20.23;15.33;;;0.80;99.90;;;;;;5048255;28;20441;-71
2021/01/11 12:11:49;;;;;;;19.80;14.87;;;0.80;99.90;;;;;;5049219;28;20908;-71
2021/01/11 12:14:17;;;;;;;19.80;14.30;;;0.80;99.90;;;;;;5049112;28;20481;-72
2021/01/11 12:16:47;;;;;;;25.03;15.37;;;0.90;99.90;;;;;;5048893;28;20463;-71
2021/01/11 12:19:13;;;;;;;23.20;17.20;;;0.90;99.90;;;;;;5043352;28;21011;-72
2021/01/11 12:21:40;;;;;;;23.43;16.40;;;0.90;99.90;;;;;;5040756;28;20563;-72
2021/01/11 12:24:09;;;;;;;22.37;14.67;;;0.90;99.90;;;;;;5036749;28;20452;-72
2021/01/11 12:26:43;;;;;;;20.97;15.77;;;0.90;99.90;;;;;;5045321;28;20976;-73
2021/01/11 12:29:09;;;;;;;21.47;14.70;;;0.80;99.90;;;;;;5047273;28;20498;-69
2021/01/11 12:31:37;;;;;;;20.23;16.33;;;0.80;99.90;;;;;;5048559;28;20543;-68
2021/01/11 12:34:04;;;;;;;24.37;14.60;;;0.80;99.90;;;;;;5048007;28;20817;-69
2021/01/11 12:36:32;;;;;;;24.17;15.47;;;0.90;99.90;;;;;;5048124;28;20456;-70